Time;durP1;ratioP1;P1;durP2;ratioP2;P2;SDS_P1;SDS_P2;PMS_P1;PMS_P2;Temp;Humidity;BMP_temperature;BMP_pressure;BME280_temperature;BME280_humidity;BME280_pressure;Samples;Min_cycle;Max_cycle;Signal;HPM_P1;HPM_P2
2021/10/29 00:01:15;;;;;;;12.80;7.70;;;;;;;8.94;66.35;97230.15;115662;1197;27608;-81
2021/10/29 00:03:46;;;;;;;12.20;7.10;;;;;;;8.92;66.44;97234.48;115652;1197;38933;-82
2021/10/29 00:06:17;;;;;;;14.40;7.50;;;;;;;8.91;66.47;97236.21;115673;1197;29950;-81
2021/10/29 00:08:48;;;;;;;11.20;7.10;;;;;;;8.90;66.43;97240.86;115650;1197;29585;-82
2021/10/29 00:11:17;;;;;;;;;;;;;;;8.89;66.55;97237.41;115685;1197;25932;-82
2021/10/29 00:13:48;;;;;;;10.20;7.20;;;;;;;8.88;66.75;97237.14;115645;1197;25649;-81
2021/10/29 00:16:19;;;;;;;13.40;7.50;;;;;;;8.88;66.68;97234.71;115655;1197;24035;-83
2021/10/29 00:18:50;;;;;;;11.30;7.40;;;;;;;8.88;66.73;97231.33;115669;1196;26951;-81
2021/10/29 00:21:20;;;;;;;12.10;7.40;;;;;;;8.89;66.59;97232.02;115705;1197;25726;-83
2021/10/29 00:23:51;;;;;;;12.40;7.00;;;;;;;8.90;66.66;97229.11;115688;1196;26565;-82
2021/10/29 00:26:22;;;;;;;14.50;7.20;;;;;;;8.89;66.78;97224.55;115745;1197;24939;-82
2021/10/29 00:28:53;;;;;;;11.70;7.60;;;;;;;8.87;66.82;97224.08;115691;1197;28245;-82
2021/10/29 00:31:24;;;;;;;9.10;6.70;;;;;;;8.89;66.91;97223.14;115700;1197;25901;-81
2021/10/29 00:33:55;;;;;;;14.10;7.30;;;;;;;8.91;66.73;97223.89;115711;1197;27986;-81
2021/10/29 00:36:25;;;;;;;10.90;7.30;;;;;;;8.91;66.76;97226.27;115678;1197;26274;-81
2021/10/29 00:38:56;;;;;;;12.70;7.70;;;;;;;8.90;66.81;97227.32;115637;1198;27451;-81
2021/10/29 00:41:27;;;;;;;13.20;6.80;;;;;;;8.88;66.80;97221.49;115551;1198;27626;-81
2021/10/29 00:43:59;;;;;;;11.20;6.10;;;;;;;8.86;67.04;97219.30;115618;1197;52080;-81
2021/10/29 00:46:30;;;;;;;11.00;7.20;;;;;;;8.83;66.98;97223.12;115777;1197;37297;-82
2021/10/29 00:49:02;;;;;;;12.70;7.40;;;;;;;8.81;67.14;97219.94;115749;1197;29864;-82
2021/10/29 00:51:32;;;;;;;11.20;7.30;;;;;;;8.79;67.10;97213.16;115779;1196;28364;-81
2021/10/29 00:54:03;;;;;;;13.20;7.60;;;;;;;8.75;67.07;97210.48;115727;1197;27064;-82
2021/10/29 00:56:34;;;;;;;10.80;7.10;;;;;;;8.71;67.12;97211.38;115645;1197;27805;-80
2021/10/29 00:59:05;;;;;;;10.40;6.60;;;;;;;8.69;67.22;97208.35;115686;1197;28895;-80
2021/10/29 01:01:37;;;;;;;9.30;6.20;;;;;;;8.69;67.20;97203.44;115706;1196;28043;-80
2021/10/29 01:04:08;;;;;;;9.80;6.40;;;;;;;8.71;67.09;97200.80;115684;1197;30283;-80
2021/10/29 01:06:40;;;;;;;14.40;6.70;;;;;;;8.74;67.06;97194.50;115632;1197;24179;-81
2021/10/29 01:09:11;;;;;;;8.80;5.90;;;;;;;8.81;66.88;97195.14;115662;1197;29214;-82
2021/10/29 01:11:43;;;;;;;10.80;6.50;;;;;;;8.85;66.72;97188.65;115645;1197;25663;-81
2021/10/29 01:14:13;;;;;;;11.70;6.70;;;;;;;8.86;66.46;97186.60;115663;1197;27074;-81
2021/10/29 01:16:44;;;;;;;9.10;5.90;;;;;;;8.87;66.36;97186.05;115597;1197;27413;-82
2021/10/29 01:19:15;;;;;;;10.50;5.60;;;;;;;8.86;66.31;97184.04;115737;1196;25797;-82
2021/10/29 01:21:46;;;;;;;11.70;6.00;;;;;;;8.83;66.16;97183.10;115608;1197;60711;-82
2021/10/29 01:24:17;;;;;;;10.70;6.60;;;;;;;8.80;66.22;97182.44;115686;1197;28851;-82
2021/10/29 01:26:48;;;;;;;9.50;6.40;;;;;;;8.76;66.25;97181.41;115763;1196;27334;-81
2021/10/29 01:29:20;;;;;;;10.30;6.50;;;;;;;8.74;66.19;97179.70;115669;1197;29251;-81
2021/10/29 01:31:51;;;;;;;11.00;6.50;;;;;;;8.76;66.17;97179.25;115661;1190;34675;-82
2021/10/29 01:34:22;;;;;;;10.10;5.60;;;;;;;8.78;65.97;97179.10;115675;1197;28043;-81
2021/10/29 01:36:53;;;;;;;11.50;6.50;;;;;;;8.75;66.07;97179.77;115668;1197;27889;-81
2021/10/29 01:39:23;;;;;;;8.10;5.80;;;;;;;8.71;66.00;97177.28;115673;1197;30930;-82
2021/10/29 01:41:54;;;;;;;12.70;6.90;;;;;;;8.67;66.03;97173.19;115661;1194;27775;-81
2021/10/29 01:44:25;;;;;;;12.10;6.10;;;;;;;8.64;66.13;97172.75;115684;1197;29802;-81
2021/10/29 01:46:56;;;;;;;11.30;6.60;;;;;;;8.62;66.14;97170.73;115630;1197;26873;-82
2021/10/29 01:49:26;;;;;;;11.50;6.50;;;;;;;8.62;65.99;97167.23;115645;1197;29806;-81
2021/10/29 01:51:58;;;;;;;10.40;6.00;;;;;;;8.63;66.07;97159.84;115718;1197;29840;-81
2021/10/29 01:54:28;;;;;;;9.80;5.60;;;;;;;8.66;65.93;97162.98;115691;1196;37948;-82
2021/10/29 01:57:00;;;;;;;10.80;5.90;;;;;;;8.67;65.68;97157.80;115714;1196;28819;-81
2021/10/29 01:59:30;;;;;;;10.20;6.00;;;;;;;8.72;65.55;97156.58;115811;1196;50209;-81
2021/10/29 02:02:03;;;;;;;8.30;5.30;;;;;;;8.77;65.30;97155.14;115731;1197;46594;-81
2021/10/29 02:04:43;;;;;;;10.50;5.10;;;;;;;8.78;65.19;97151.50;115714;1196;28503;-82
2021/10/29 02:07:13;;;;;;;9.50;5.00;;;;;;;8.83;64.92;97143.91;115646;1197;28536;-81
2021/10/29 02:09:44;;;;;;;8.60;5.10;;;;;;;8.88;64.44;97141.69;115665;1197;27723;-82
2021/10/29 02:12:15;;;;;;;6.70;4.80;;;;;;;8.97;64.06;97147.55;115672;1197;26833;-81
2021/10/29 02:14:46;;;;;;;6.40;4.50;;;;;;;9.00;63.80;97139.06;115667;1197;31776;-81
2021/10/29 02:17:17;;;;;;;7.10;4.60;;;;;;;9.04;63.44;97135.82;115643;1197;31623;-81
2021/10/29 02:19:48;;;;;;;11.90;6.00;;;;;;;9.08;63.20;97128.75;115706;1197;25073;-82
2021/10/29 02:22:19;;;;;;;7.60;4.90;;;;;;;9.10;63.15;97130.50;115633;1197;26947;-82
2021/10/29 02:24:49;;;;;;;9.60;5.30;;;;;;;9.09;63.10;97130.17;115664;1197;26218;-82
2021/10/29 02:27:20;;;;;;;10.20;5.20;;;;;;;9.05;63.09;97130.70;115770;1197;25488;-81
2021/10/29 02:29:51;;;;;;;8.50;5.00;;;;;;;9.02;63.22;97130.45;115740;1197;25424;-81
2021/10/29 02:32:22;;;;;;;8.50;5.30;;;;;;;8.97;63.26;97124.82;115741;1183;27688;-81
2021/10/29 02:34:53;;;;;;;9.50;5.30;;;;;;;8.94;63.28;97123.70;115640;1197;28561;-82
2021/10/29 02:37:23;;;;;;;9.60;5.20;;;;;;;8.91;63.23;97126.33;115623;1197;27312;-81
2021/10/29 02:39:56;;;;;;;8.30;4.60;;;;;;;8.89;63.29;97126.37;115692;1197;26526;-82
2021/10/29 02:42:27;;;;;;;7.90;5.30;;;;;;;8.86;63.32;97120.77;115659;1197;29241;-81
2021/10/29 02:44:57;;;;;;;8.90;5.20;;;;;;;8.85;63.41;97117.17;115593;1197;28263;-81
2021/10/29 02:47:28;;;;;;;7.80;5.30;;;;;;;8.85;63.44;97122.88;115637;1197;28536;-81
2021/10/29 02:49:59;;;;;;;9.40;5.20;;;;;;;8.83;63.35;97117.27;115753;1197;40307;-81
2021/10/29 02:52:30;;;;;;;7.60;5.20;;;;;;;8.84;63.16;97114.98;115545;1192;31506;-81
2021/10/29 02:55:00;;;;;;;7.00;4.70;;;;;;;8.85;63.02;97116.95;115713;1197;27500;-82
2021/10/29 02:57:31;;;;;;;10.60;5.20;;;;;;;8.85;62.92;97115.48;115705;1197;31155;-81
2021/10/29 03:00:02;;;;;;;9.50;5.00;;;;;;;8.84;62.75;97115.84;115643;1198;31602;-81
2021/10/29 03:02:46;;;;;;;8.80;4.70;;;;;;;8.82;62.77;97118.84;115687;1197;27561;-82
2021/10/29 03:05:17;;;;;;;9.80;5.10;;;;;;;8.82;62.83;97111.81;115549;1198;68073;-82
2021/10/29 03:07:48;;;;;;;9.20;5.50;;;;;;;8.79;62.96;97110.73;115589;1198;31731;-82
2021/10/29 03:10:19;;;;;;;10.00;5.10;;;;;;;8.77;62.93;97112.95;115577;1197;28243;-81
2021/10/29 03:12:50;;;;;;;7.90;4.60;;;;;;;8.74;63.14;97120.70;115490;1198;30871;-81
2021/10/29 03:15:21;;;;;;;7.00;4.70;;;;;;;8.72;63.28;97113.00;115569;1198;27974;-82
2021/10/29 03:17:51;;;;;;;8.00;5.20;;;;;;;8.70;63.11;97115.38;115645;1197;29058;-81
2021/10/29 03:20:22;;;;;;;7.70;5.10;;;;;;;8.70;63.13;97116.38;115743;1197;28157;-81
2021/10/29 03:22:53;;;;;;;7.90;5.10;;;;;;;8.72;63.08;97112.70;115635;1183;35214;-81
2021/10/29 03:25:24;;;;;;;7.50;4.70;;;;;;;8.75;63.07;97115.64;115535;1198;30083;-81
2021/10/29 03:27:54;;;;;;;9.10;4.70;;;;;;;8.76;62.99;97114.48;115528;1198;29127;-82
2021/10/29 03:30:26;;;;;;;9.40;4.80;;;;;;;8.78;63.07;97115.55;115571;1198;27675;-82
2021/10/29 03:32:57;;;;;;;8.40;4.60;;;;;;;8.80;62.94;97109.84;115621;1197;40391;-81
2021/10/29 03:35:29;;;;;;;8.30;5.00;;;;;;;8.82;62.85;97108.05;115606;1192;29322;-81
2021/10/29 03:38:22;;;;;;;5.60;3.90;;;;;;;8.85;62.79;97109.34;115596;1198;31889;-81
2021/10/29 03:40:58;;;;;;;7.20;3.90;;;;;;;8.87;62.56;97103.55;115561;1198;28065;-81
2021/10/29 03:43:31;;;;;;;7.60;4.20;;;;;;;8.86;62.60;97110.94;115620;1191;27313;-82
2021/10/29 03:46:05;;;;;;;8.60;4.90;;;;;;;8.85;62.71;97109.03;115655;1198;38216;-81
2021/10/29 03:48:42;;;;;;;7.30;4.90;;;;;;;8.88;62.54;97105.20;115627;1198;28563;-80
2021/10/29 03:51:18;;;;;;;10.50;4.70;;;;;;;8.88;62.53;97106.90;115678;1197;45782;-81
2021/10/29 03:54:02;;;;;;;8.50;4.70;;;;;;;8.86;62.32;97102.27;115693;1197;24463;-81
2021/10/29 03:56:41;;;;;;;7.80;4.40;;;;;;;8.84;62.33;97102.04;115795;1190;27210;-81
2021/10/29 03:59:12;;;;;;;8.30;4.90;;;;;;;8.81;62.11;97105.94;115661;1197;26887;-82
2021/10/29 04:01:44;;;;;;;7.30;4.20;;;;;;;8.81;62.11;97102.97;115692;1197;29100;-81
2021/10/29 04:04:15;;;;;;;9.80;4.80;;;;;;;8.79;61.99;97102.92;115628;1197;29390;-81
2021/10/29 04:06:46;;;;;;;7.90;4.20;;;;;;;8.77;62.05;97104.49;115683;1197;26319;-81
2021/10/29 04:09:17;;;;;;;8.00;5.10;;;;;;;8.75;61.97;97099.14;115665;1197;29597;-83
2021/10/29 04:11:48;;;;;;;8.90;4.20;;;;;;;8.72;61.81;97098.96;115572;1192;28390;-82
2021/10/29 04:14:22;;;;;;;8.30;4.00;;;;;;;8.69;61.81;97096.65;115688;1197;26895;-81
2021/10/29 04:16:54;;;;;;;7.30;4.20;;;;;;;8.66;61.51;97088.23;115721;1197;38598;-81
2021/10/29 04:19:25;;;;;;;6.60;4.30;;;;;;;8.67;61.48;97091.62;115713;1197;29195;-81
2021/10/29 04:21:57;;;;;;;7.60;4.80;;;;;;;8.67;61.43;97083.16;115653;1198;28917;-81
2021/10/29 04:24:28;;;;;;;10.00;4.40;;;;;;;8.69;61.14;97088.56;115692;1190;28197;-81
2021/10/29 04:27:01;;;;;;;8.10;4.40;;;;;;;8.70;61.07;97089.11;115709;1197;28048;-81
2021/10/29 04:29:38;;;;;;;7.40;4.30;;;;;;;8.69;60.88;97086.61;115737;1197;27508;-81
2021/10/29 04:32:09;;;;;;;7.00;4.30;;;;;;;8.71;60.65;97084.98;115660;1197;27473;-81
2021/10/29 04:34:40;;;;;;;10.30;4.50;;;;;;;8.72;60.56;97085.83;115655;1197;29106;-81
2021/10/29 04:37:11;;;;;;;7.30;4.30;;;;;;;8.76;60.44;97081.17;115761;1196;26434;-81
2021/10/29 04:39:42;;;;;;;9.30;4.70;;;;;;;8.77;60.10;97072.25;115534;1198;28604;-82
2021/10/29 04:42:16;;;;;;;7.00;3.80;;;;;;;8.79;60.01;97079.87;115644;1197;28819;-81
2021/10/29 04:44:48;;;;;;;5.80;3.80;;;;;;;8.82;59.68;97084.21;115646;1190;29855;-81
2021/10/29 04:47:19;;;;;;;6.30;3.70;;;;;;;8.83;59.79;97087.39;115738;1197;31376;-82
2021/10/29 04:49:49;;;;;;;7.60;4.20;;;;;;;8.81;59.52;97086.16;115687;1196;26967;-81
2021/10/29 04:52:20;;;;;;;6.70;4.10;;;;;;;8.80;59.47;97079.50;115639;1197;88831;-81
2021/10/29 04:54:51;;;;;;;7.30;4.10;;;;;;;8.82;59.33;97086.92;115721;1196;29117;-82
2021/10/29 04:57:22;;;;;;;8.30;4.10;;;;;;;8.80;59.32;97078.97;115666;1197;29563;-81
2021/10/29 04:59:53;;;;;;;6.70;4.00;;;;;;;8.82;59.07;97079.61;115683;1197;27566;-82
2021/10/29 05:02:24;;;;;;;7.20;4.50;;;;;;;8.81;58.96;97071.73;115620;1196;28957;-81
2021/10/29 05:04:55;;;;;;;8.00;4.20;;;;;;;8.81;58.79;97080.45;115701;1197;29626;-81
2021/10/29 05:07:26;;;;;;;6.30;3.90;;;;;;;8.80;58.85;97083.46;115719;1196;30163;-82
2021/10/29 05:09:56;;;;;;;5.10;3.40;;;;;;;8.78;58.83;97084.77;115632;1190;44339;-82
2021/10/29 05:12:28;;;;;;;6.20;3.80;;;;;;;8.78;58.59;97074.36;115678;1197;27695;-81
2021/10/29 05:14:59;;;;;;;6.90;4.10;;;;;;;8.78;58.36;97075.85;115693;1197;30577;-82
2021/10/29 05:17:30;;;;;;;6.40;3.70;;;;;;;8.77;58.35;97075.15;115711;1192;29804;-81
2021/10/29 05:20:01;;;;;;;7.10;4.10;;;;;;;8.74;58.26;97073.08;115739;1197;28603;-81
2021/10/29 05:22:32;;;;;;;6.30;3.60;;;;;;;8.73;58.04;97075.12;115689;1197;33012;-82
2021/10/29 05:25:03;;;;;;;7.20;3.80;;;;;;;8.74;57.82;97068.90;115757;1190;23736;-81
2021/10/29 05:27:33;;;;;;;6.10;3.80;;;;;;;8.73;57.61;97066.51;115735;1197;28302;-81
2021/10/29 05:30:07;;;;;;;8.20;4.10;;;;;;;8.74;57.37;97064.40;115791;1196;28902;-81
2021/10/29 05:32:39;;;;;;;8.40;3.80;;;;;;;8.77;57.19;97070.61;115612;1197;39890;-81
2021/10/29 05:35:10;;;;;;;7.10;3.50;;;;;;;8.77;57.00;97069.71;115601;1197;76150;-82
2021/10/29 05:37:41;;;;;;;5.90;3.90;;;;;;;8.77;56.96;97067.44;115709;1196;31310;-82
2021/10/29 05:40:14;;;;;;;6.80;3.90;;;;;;;8.79;56.68;97064.59;115659;1198;24293;-81
2021/10/29 05:42:45;;;;;;;4.90;3.70;;;;;;;8.84;56.46;97072.38;115800;1196;26260;-81
2021/10/29 05:45:16;;;;;;;4.70;3.20;;;;;;;9.13;56.30;97073.65;115645;1197;26639;-81
2021/10/29 05:47:46;;;;;;;6.50;3.50;;;;;;;9.68;55.37;97074.83;115573;1197;28675;-81
2021/10/29 05:50:17;;;;;;;6.00;3.50;;;;;;;10.23;54.12;97078.76;115670;1197;27242;-81
2021/10/29 05:52:48;;;;;;;9.60;3.90;;;;;;;10.73;53.18;97072.98;115682;1197;28639;-81
2021/10/29 05:55:19;;;;;;;5.20;3.70;;;;;;;11.19;52.49;97076.97;115603;1197;28895;-82
2021/10/29 05:57:52;;;;;;;5.30;3.40;;;;;;;11.64;51.42;97075.09;115650;1197;26386;-82
2021/10/29 06:00:24;;;;;;;5.00;3.60;;;;;;;11.99;50.67;97072.05;115647;1197;28133;-82
2021/10/29 06:02:55;;;;;;;5.90;3.50;;;;;;;12.30;49.90;97076.10;115622;1197;25677;-83
2021/10/29 06:05:26;;;;;;;5.60;3.20;;;;;;;12.67;49.54;97080.27;115711;1197;25137;-81
2021/10/29 06:07:56;;;;;;;;;;;;;;;13.06;48.53;97081.22;115718;1197;26235;-82
2021/10/29 06:10:27;;;;;;;5.60;3.40;;;;;;;13.35;47.75;97078.88;115616;1197;29659;-82
2021/10/29 06:12:58;;;;;;;5.40;3.50;;;;;;;13.77;47.31;97080.48;115714;1189;24038;-81
2021/10/29 06:15:29;;;;;;;6.60;3.50;;;;;;;14.01;45.78;97081.55;115680;1197;29955;-82
2021/10/29 06:18:00;;;;;;;4.40;3.20;;;;;;;14.23;44.80;97083.63;115722;1197;25663;-82
2021/10/29 06:20:31;;;;;;;3.80;2.80;;;;;;;14.52;44.52;97087.04;115741;1196;26467;-81
2021/10/29 06:23:06;;;;;;;4.40;2.80;;;;;;;14.68;42.68;97085.61;115717;1197;28364;-81
2021/10/29 06:25:42;;;;;;;5.40;3.00;;;;;;;14.74;42.12;97079.94;115609;1197;31708;-82
2021/10/29 06:28:19;;;;;;;7.00;3.60;;;;;;;14.89;42.38;97086.70;115661;1197;30584;-82
2021/10/29 06:30:51;;;;;;;5.60;3.20;;;;;;;15.28;42.65;97097.79;115645;1197;37033;-82
2021/10/29 06:33:23;;;;;;;5.20;3.30;;;;;;;15.70;42.52;97095.34;115635;1197;29314;-81
2021/10/29 06:35:57;;;;;;;5.30;3.10;;;;;;;16.01;41.82;97094.79;115652;1197;28628;-82
2021/10/29 06:38:27;;;;;;;4.20;2.80;;;;;;;16.17;39.88;97094.61;115682;1197;28451;-81
2021/10/29 06:40:58;;;;;;;5.50;3.10;;;;;;;16.05;39.18;97099.61;115698;1197;35818;-82
2021/10/29 06:43:32;;;;;;;5.20;3.10;;;;;;;16.14;39.45;97094.81;115636;1189;27062;-82
2021/10/29 06:46:19;;;;;;;5.50;2.80;;;;;;;16.21;37.86;97092.31;115718;1190;29163;-82
2021/10/29 06:48:53;;;;;;;4.70;3.10;;;;;;;16.16;37.82;97097.94;115603;1197;30750;-82
2021/10/29 06:59:58;;;;;;;5.10;2.90;;;;;;;16.58;36.77;97105.85;115609;1198;27816;-83
2021/10/29 07:41:53;;;;;;;4.30;2.50;;;;;;;16.63;36.04;97108.27;115637;1197;28934;-82
2021/10/29 07:44:28;;;;;;;3.90;2.50;;;;;;;16.35;34.50;97106.98;115623;1197;25879;-82
2021/10/29 07:46:59;;;;;;;4.60;2.50;;;;;;;15.96;35.30;97105.85;115630;1197;28967;-82
2021/10/29 07:49:30;;;;;;;5.60;2.50;;;;;;;15.82;36.03;97110.82;115646;1197;27042;-81
2021/10/29 07:52:01;;;;;;;3.90;2.80;;;;;;;15.88;36.13;97109.02;115724;1192;29224;-81
2021/10/29 07:54:32;;;;;;;6.40;3.00;;;;;;;15.90;36.12;97109.83;115738;1196;34379;-82
2021/10/29 07:57:03;;;;;;;3.60;2.70;;;;;;;15.91;36.22;97110.19;115713;1197;31781;-82
2021/10/29 07:59:33;;;;;;;4.60;2.70;;;;;;;15.90;35.50;97106.62;115723;1197;29139;-81
2021/10/29 08:02:04;;;;;;;3.80;2.50;;;;;;;15.76;36.12;97116.44;115666;1198;27989;-81
2021/10/29 08:04:49;;;;;;;3.70;2.40;;;;;;;15.81;36.29;97113.98;115632;1198;27081;-79
2021/10/29 08:07:20;;;;;;;5.00;2.80;;;;;;;15.85;36.25;97112.45;115627;1190;29431;-83
2021/10/29 08:09:51;;;;;;;6.10;2.60;;;;;;;15.72;35.56;97108.56;115642;1197;33287;-82
2021/10/29 08:12:22;;;;;;;6.70;2.90;;;;;;;15.39;35.41;97115.20;115646;1197;31376;-83
2021/10/29 08:14:53;;;;;;;4.90;2.20;;;;;;;15.24;36.03;97115.60;115636;1198;27883;-82
2021/10/29 08:17:24;;;;;;;6.50;2.50;;;;;;;15.19;36.00;97114.73;115689;1190;26452;-82
2021/10/29 08:19:55;;;;;;;4.20;2.60;;;;;;;15.15;36.55;97116.30;115627;1197;29139;-82
2021/10/29 08:22:25;;;;;;;2.90;1.90;;;;;;;15.18;36.66;97120.52;115561;1198;25936;-82
2021/10/29 08:24:56;;;;;;;3.90;2.40;;;;;;;15.22;36.71;97115.98;115657;1198;32766;-82
2021/10/29 08:27:27;;;;;;;5.20;3.10;;;;;;;15.25;36.77;97117.15;115627;1197;27420;-82
2021/10/29 08:29:58;;;;;;;4.50;2.90;;;;;;;15.20;36.99;97118.94;115724;1197;27380;-81
2021/10/29 08:32:29;;;;;;;4.80;2.40;;;;;;;15.18;36.83;97117.27;115671;1190;28326;-82
2021/10/29 08:34:59;;;;;;;4.70;3.00;;;;;;;15.18;36.67;97115.97;115575;1197;30804;-82
2021/10/29 08:37:32;;;;;;;;;;;;;;;15.16;36.63;97119.32;115719;1197;27564;-82
2021/10/29 08:40:04;;;;;;;4.80;2.80;;;;;;;15.04;36.01;97118.31;115737;1197;35990;-82
2021/10/29 08:42:36;;;;;;;3.10;2.20;;;;;;;15.00;36.82;97120.02;115675;1197;27731;-81
2021/10/29 08:45:09;;;;;;;5.70;2.70;;;;;;;15.02;36.51;97117.44;115625;1197;28223;-81
2021/10/29 08:47:41;;;;;;;6.40;2.40;;;;;;;14.99;36.82;97116.42;115644;1198;25017;-82
2021/10/29 08:50:15;;;;;;;4.70;2.40;;;;;;;15.01;37.11;97122.73;115659;1197;26926;-82
2021/10/29 08:52:48;;;;;;;4.80;2.50;;;;;;;15.01;36.42;97118.15;115640;1196;30451;-83
2021/10/29 08:55:25;;;;;;;4.20;2.60;;;;;;;14.89;36.14;97120.71;115746;1196;29832;-82
2021/10/29 08:57:59;;;;;;;5.50;2.70;;;;;;;14.88;36.51;97126.33;115634;1197;26049;-82
2021/10/29 09:00:35;;;;;;;4.50;3.00;;;;;;;14.89;36.58;97133.30;115640;1197;27577;-81
2021/10/29 09:03:09;;;;;;;5.60;3.40;;;;;;;14.89;36.12;97123.80;115628;1197;28729;-81
2021/10/29 09:05:46;;;;;;;6.70;3.20;;;;;;;14.88;36.15;97128.98;115641;1198;28659;-82
2021/10/29 09:08:23;;;;;;;4.60;3.00;;;;;;;14.95;36.59;97125.42;115604;1198;33645;-83
2021/10/29 09:31:26;;;;;;;6.10;3.40;;;;;;;15.36;35.54;97123.77;115634;1197;26118;-81
2021/10/29 09:34:03;;;;;;;5.10;2.60;;;;;;;15.40;35.35;97120.05;115667;1197;27421;-82
2021/10/29 09:36:37;;;;;;;3.70;2.50;;;;;;;15.46;34.94;97121.16;115731;1197;27584;-82
2021/10/29 09:39:10;;;;;;;4.30;2.60;;;;;;;15.47;34.82;97124.88;115610;1197;29051;-82
2021/10/29 09:41:41;;;;;;;3.70;2.20;;;;;;;15.53;35.15;97122.44;115612;1197;34074;-82
2021/10/29 09:44:15;;;;;;;3.80;2.70;;;;;;;15.60;35.36;97120.44;115617;1198;33728;-83
2021/10/29 09:46:53;;;;;;;4.60;2.70;;;;;;;15.64;35.11;97114.19;115592;1197;33512;-82
2021/10/29 09:49:30;;;;;;;5.40;2.70;;;;;;;15.64;35.24;97114.82;115670;1197;37765;-82
2021/10/29 09:52:32;;;;;;;6.50;3.30;;;;;;;15.70;35.24;97112.48;115682;1197;30613;-82
2021/10/29 09:55:15;;;;;;;6.30;3.20;;;;;;;15.82;35.24;97110.33;115726;1190;26434;-82
2021/10/29 09:57:48;;;;;;;5.20;3.30;;;;;;;15.89;34.83;97107.34;115672;1197;29310;-82
2021/10/29 10:00:19;;;;;;;4.20;2.60;;;;;;;15.91;34.84;97109.23;115649;1197;31601;-82
2021/10/29 10:02:50;;;;;;;4.70;2.50;;;;;;;15.96;34.26;97101.70;115671;1197;25485;-83
2021/10/29 10:05:22;;;;;;;6.20;3.40;;;;;;;15.97;33.68;97105.84;115519;1198;37616;-82
2021/10/29 10:07:54;;;;;;;4.90;2.70;;;;;;;16.03;34.05;97102.86;115647;1197;26822;-82
2021/10/29 10:10:26;;;;;;;4.80;2.50;;;;;;;16.12;33.63;97103.02;115672;1197;25061;-83
2021/10/29 10:12:58;;;;;;;3.90;2.20;;;;;;;16.09;32.99;97105.26;115684;1197;30638;-82
2021/10/29 10:15:30;;;;;;;4.50;2.50;;;;;;;16.17;33.39;97102.80;115692;1197;25389;-82
2021/10/29 10:18:01;;;;;;;3.90;2.50;;;;;;;16.26;33.39;97099.41;115716;1197;46518;-82
2021/10/29 10:20:32;;;;;;;3.90;2.40;;;;;;;16.33;33.64;97100.02;115706;1190;23261;-82
2021/10/29 10:23:06;;;;;;;3.10;1.90;;;;;;;16.40;33.60;97098.73;115728;1197;23838;-82
2021/10/29 10:25:44;;;;;;;4.10;2.40;;;;;;;16.47;33.56;97094.70;115643;1197;43885;-82
2021/10/29 10:42:36;;;;;;;4.20;2.40;;;;;;;16.81;33.43;97095.46;115649;1190;26955;-83
2021/10/29 10:45:16;;;;;;;4.50;2.40;;;;;;;16.82;33.32;97091.46;115666;1197;28625;-84
2021/10/29 10:47:54;;;;;;;4.50;2.70;;;;;;;16.84;33.46;97091.58;115635;1197;31418;-82
2021/10/29 10:50:32;;;;;;;4.60;2.50;;;;;;;16.88;33.35;97086.48;115620;1197;32563;-83
2021/10/29 10:53:23;;;;;;;3.80;2.30;;;;;;;16.94;33.25;97086.77;115721;1198;26661;-82
2021/10/29 10:56:01;;;;;;;;;;;;;;;16.97;32.77;97082.31;115617;1198;27891;-82
2021/10/29 10:58:46;;;;;;;4.90;2.10;;;;;;;17.04;33.34;97077.24;115715;1192;28073;-83
2021/10/29 11:01:38;;;;;;;3.00;2.30;;;;;;;17.12;32.88;97079.02;115588;1197;52027;-82
2021/10/29 11:09:52;;;;;;;4.00;2.50;;;;;;;17.25;32.70;97076.33;115539;1197;63416;-83
2021/10/29 11:10:30;;;;;;;4.10;2.90;;;;;;;17.31;32.38;97082.70;115638;1198;28177;-82
2021/10/29 11:13:10;;;;;;;5.40;3.10;;;;;;;17.33;32.45;97081.33;115688;1197;28126;-82
2021/10/29 11:15:41;;;;;;;4.70;2.40;;;;;;;17.35;32.56;97075.30;115686;1197;30114;-82
2021/10/29 11:18:34;;;;;;;5.40;2.80;;;;;;;17.37;32.41;97074.23;115631;1197;29426;-82
2021/10/29 11:21:20;;;;;;;4.00;2.40;;;;;;;17.40;31.72;97074.39;115701;1198;25745;-83
2021/10/29 11:23:58;;;;;;;4.80;2.60;;;;;;;17.40;32.05;97072.37;115701;1196;28510;-83
2021/10/29 11:26:38;;;;;;;5.20;2.30;;;;;;;17.42;32.23;97070.58;115651;1196;28550;-83
2021/10/29 11:29:10;;;;;;;5.60;2.70;;;;;;;17.46;32.10;97070.39;115660;1197;29351;-82
2021/10/29 11:31:45;;;;;;;4.20;2.60;;;;;;;17.44;32.07;97068.98;115652;1196;26859;-82
2021/10/29 11:34:18;;;;;;;4.20;2.50;;;;;;;17.48;32.14;97064.34;115665;1196;33064;-83
2021/10/29 11:36:52;;;;;;;4.40;2.70;;;;;;;17.53;32.22;97058.07;115584;1197;28442;-83
2021/10/29 11:39:25;;;;;;;4.70;2.90;;;;;;;17.61;31.97;97057.08;115586;1197;28641;-84
2021/10/29 11:41:56;;;;;;;4.90;2.80;;;;;;;17.70;32.66;97056.95;115613;1198;31380;-83
2021/10/29 11:44:28;;;;;;;5.50;2.80;;;;;;;17.80;32.60;97054.59;115603;1194;29333;-83
2021/10/29 11:46:59;;;;;;;5.70;3.10;;;;;;;17.80;31.87;97052.26;115676;1196;26854;-83
2021/10/29 11:49:30;;;;;;;5.10;2.90;;;;;;;17.82;31.93;97047.23;115617;1197;28857;-83
2021/10/29 11:52:05;;;;;;;6.40;3.20;;;;;;;17.85;31.85;97044.52;115702;1197;42925;-83
2021/10/29 11:54:38;;;;;;;5.30;3.30;;;;;;;17.85;31.84;97044.30;115644;1197;28073;-83
2021/10/29 11:57:25;;;;;;;4.00;2.80;;;;;;;17.87;32.14;97038.05;115636;1197;27278;-83
2021/10/29 12:05:53;;;;;;;4.20;2.70;;;;;;;17.98;31.94;97031.17;115674;1197;33051;-84
2021/10/29 12:08:26;;;;;;;5.10;2.90;;;;;;;18.01;32.12;97025.72;115616;1197;31116;-83
2021/10/29 12:11:03;;;;;;;5.10;2.70;;;;;;;18.05;32.47;97023.53;115630;1190;29520;-84
2021/10/29 12:13:37;;;;;;;5.20;2.70;;;;;;;18.09;32.59;97022.58;115705;1197;26577;-83
2021/10/29 12:16:19;;;;;;;3.90;2.20;;;;;;;18.12;32.92;97021.30;115606;1197;30136;-82
2021/10/29 12:18:59;;;;;;;4.50;2.20;;;;;;;18.17;32.95;97022.01;115651;1198;29215;-84
2021/10/29 12:21:34;;;;;;;4.40;2.60;;;;;;;18.22;32.61;97019.38;115592;1197;29577;-84
2021/10/29 12:24:09;;;;;;;5.20;2.40;;;;;;;18.27;32.48;97023.13;115690;1197;31477;-83
2021/10/29 12:26:40;;;;;;;3.70;2.60;;;;;;;18.30;32.25;97016.51;115587;1197;31660;-82
2021/10/29 12:29:17;;;;;;;4.80;2.20;;;;;;;18.33;32.49;97011.48;115600;1197;37119;-83
2021/10/29 12:32:31;;;;;;;6.60;2.70;;;;;;;18.34;32.40;97008.95;115597;1197;33401;-83
2021/10/29 12:38:23;;;;;;;3.00;2.30;;;;;;;18.46;32.71;97006.77;115614;1197;26751;-83
2021/10/29 12:53:14;;;;;;;6.40;2.90;;;;;;;18.53;33.26;96993.71;115532;1199;33806;-84
2021/10/29 13:01:55;;;;;;;4.10;2.30;;;;;;;18.57;33.75;96988.64;115536;1198;37693;-83
2021/10/29 13:04:40;;;;;;;3.10;2.20;;;;;;;18.59;33.69;96990.14;115572;1198;29292;-85
2021/10/29 13:07:12;;;;;;;4.40;2.70;;;;;;;18.62;33.61;96990.92;115572;1198;32416;-84
2021/10/29 13:09:44;;;;;;;5.90;2.20;;;;;;;18.63;33.70;96989.00;115599;1198;28840;-83
2021/10/29 13:12:19;;;;;;;6.00;3.10;;;;;;;18.67;34.08;96984.32;115380;1198;30644;-83
2021/10/29 13:14:55;;;;;;;3.10;2.30;;;;;;;18.68;33.85;96985.73;115584;1193;30428;-83
2021/10/29 13:17:30;;;;;;;4.60;2.70;;;;;;;18.66;33.69;96987.39;115561;1198;29251;-84
2021/10/29 13:20:27;;;;;;;5.00;2.80;;;;;;;18.66;33.77;96982.62;115609;1192;28878;-83
2021/10/29 13:26:10;;;;;;;4.40;2.60;;;;;;;18.62;33.91;96981.28;115575;1193;26301;-83
2021/10/29 13:28:46;;;;;;;4.10;2.40;;;;;;;18.61;33.97;96978.23;115576;1198;31016;-83
2021/10/29 13:37:00;;;;;;;33.30;18.80;;;;;;;18.59;34.22;96976.69;115627;1198;24604;-84
2021/10/29 13:51:04;;;;;;;5.20;3.10;;;;;;;18.42;35.09;96968.44;115439;1198;87061;-83
2021/10/29 13:53:48;;;;;;;8.60;4.40;;;;;;;18.36;35.40;96967.54;115643;1198;31250;-84
2021/10/29 13:56:25;;;;;;;9.70;4.30;;;;;;;18.36;36.36;96964.55;115608;1198;30138;-83
2021/10/29 14:30:51;;;;;;;33.40;18.50;;;;;;;17.42;39.11;96943.20;115602;1198;27921;-83
2021/10/29 14:33:29;;;;;;;20.80;11.50;;;;;;;17.31;38.83;96945.66;115567;1198;57627;-83
2021/10/29 14:36:02;;;;;;;8.50;4.40;;;;;;;17.16;38.40;96947.90;115600;1191;28390;-84
2021/10/29 14:38:51;;;;;;;10.30;5.30;;;;;;;16.99;38.29;96948.94;115698;1198;26063;-83
2021/10/29 14:41:30;;;;;;;32.00;19.60;;;;;;;16.77;38.83;96948.20;115523;1198;28577;-83
2021/10/29 14:44:06;;;;;;;9.80;5.60;;;;;;;16.52;39.27;96951.81;115604;1199;25276;-83